sensor_id;sensor_type;location;lat;lon;timestamp;pressure;altitude;pressure_sealevel;temperature;humidity
71716;BME280;59568;52.128;5.434;2023-02-23T00:01:56;101460.41;;;7.36;98.06
71716;BME280;59568;52.128;5.434;2023-02-23T00:04:23;101461.66;;;7.34;98.14
71716;BME280;59568;52.128;5.434;2023-02-23T00:06:51;101469.47;;;7.34;98.05
71716;BME280;59568;52.128;5.434;2023-02-23T00:09:18;101469.47;;;7.34;98.01
71716;BME280;59568;52.128;5.434;2023-02-23T00:11:50;101468.69;;;7.33;98.12
71716;BME280;59568;52.128;5.434;2023-02-23T00:14:24;101470.50;;;7.33;98.15
71716;BME280;59568;52.128;5.434;2023-02-23T00:16:54;101463.72;;;7.32;98.48
71716;BME280;59568;52.128;5.434;2023-02-23T00:19:21;101461.13;;;7.32;98.39
71716;BME280;59568;52.128;5.434;2023-02-23T00:21:50;101460.09;;;7.33;98.35
71716;BME280;59568;52.128;5.434;2023-02-23T00:24:17;101450.72;;;7.32;98.29
71716;BME280;59568;52.128;5.434;2023-02-23T00:26:48;101462.72;;;7.33;98.36
71716;BME280;59568;52.128;5.434;2023-02-23T00:29:19;101452.78;;;7.30;98.19
71716;BME280;59568;52.128;5.434;2023-02-23T00:31:47;101456.44;;;7.29;98.31
71716;BME280;59568;52.128;5.434;2023-02-23T00:34:17;101456.44;;;7.29;98.23
71716;BME280;59568;52.128;5.434;2023-02-23T00:36:53;101458.00;;;7.30;98.35
71716;BME280;59568;52.128;5.434;2023-02-23T00:39:21;101456.69;;;7.27;98.17
71716;BME280;59568;52.128;5.434;2023-02-23T00:41:51;101441.84;;;7.28;98.44
71716;BME280;59568;52.128;5.434;2023-02-23T00:44:19;101450.69;;;7.27;98.68
71716;BME280;59568;52.128;5.434;2023-02-23T00:46:47;101449.91;;;7.26;98.66
71716;BME280;59568;52.128;5.434;2023-02-23T00:49:17;101450.69;;;7.27;98.40
71716;BME280;59568;52.128;5.434;2023-02-23T00:51:44;101449.13;;;7.26;98.45
71716;BME280;59568;52.128;5.434;2023-02-23T00:54:13;101452.75;;;7.25;98.44
71716;BME280;59568;52.128;5.434;2023-02-23T00:56:41;101457.16;;;7.24;98.30
71716;BME280;59568;52.128;5.434;2023-02-23T00:59:08;101453.25;;;7.22;98.16
71716;BME280;59568;52.128;5.434;2023-02-23T01:01:36;101453.78;;;7.24;98.25
71716;BME280;59568;52.128;5.434;2023-02-23T01:04:04;101455.84;;;7.22;98.36
71716;BME280;59568;52.128;5.434;2023-02-23T01:06:32;101453.25;;;7.22;98.16
71716;BME280;59568;52.128;5.434;2023-02-23T01:08:59;101455.84;;;7.22;98.04
71716;BME280;59568;52.128;5.434;2023-02-23T01:11:30;101453.75;;;7.18;98.35
71716;BME280;59568;52.128;5.434;2023-02-23T01:13:58;101449.81;;;7.16;98.33
71716;BME280;59568;52.128;5.434;2023-02-23T01:16:28;101452.41;;;7.16;98.45
71716;BME280;59568;52.128;5.434;2023-02-23T01:18:56;101449.03;;;7.15;98.35
71716;BME280;59568;52.128;5.434;2023-02-23T01:21:26;101452.69;;;7.14;98.46
71716;BME280;59568;52.128;5.434;2023-02-23T01:23:54;101452.13;;;7.12;98.30
71716;BME280;59568;52.128;5.434;2023-02-23T01:26:31;101457.88;;;7.14;98.47
71716;BME280;59568;52.128;5.434;2023-02-23T01:29:05;101461.19;;;7.10;98.08
71716;BME280;59568;52.128;5.434;2023-02-23T01:31:35;101458.84;;;7.08;98.43
71716;BME280;59568;52.128;5.434;2023-02-23T01:34:04;101460.91;;;7.06;98.43
71716;BME280;59568;52.128;5.434;2023-02-23T01:36:35;101468.69;;;7.06;98.25
71716;BME280;59568;52.128;5.434;2023-02-23T01:39:04;101469.50;;;7.07;98.28
71716;BME280;59568;52.128;5.434;2023-02-23T01:41:36;101465.84;;;7.08;98.57
71716;BME280;59568;52.128;5.434;2023-02-23T01:44:05;101461.94;;;7.05;98.36
71716;BME280;59568;52.128;5.434;2023-02-23T01:46:35;101460.34;;;7.04;98.65
71716;BME280;59568;52.128;5.434;2023-02-23T01:49:07;101465.31;;;7.06;98.44
71716;BME280;59568;52.128;5.434;2023-02-23T01:51:39;101469.72;;;7.05;98.36
71716;BME280;59568;52.128;5.434;2023-02-23T01:54:10;101462.94;;;7.04;98.60
71716;BME280;59568;52.128;5.434;2023-02-23T01:56:44;101464.53;;;7.05;98.44
71716;BME280;59568;52.128;5.434;2023-02-23T01:59:13;101454.91;;;7.06;98.72
71716;BME280;59568;52.128;5.434;2023-02-23T02:01:42;101460.13;;;7.06;98.70
71716;BME280;59568;52.128;5.434;2023-02-23T02:04:10;101468.69;;;7.06;98.91
71716;BME280;59568;52.128;5.434;2023-02-23T02:06:43;101461.41;;;7.03;98.62
71716;BME280;59568;52.128;5.434;2023-02-23T02:09:14;101459.81;;;7.02;98.89
71716;BME280;59568;52.128;5.434;2023-02-23T02:11:45;101459.81;;;7.02;98.79
71716;BME280;59568;52.128;5.434;2023-02-23T02:24:37;101471.78;;;7.03;98.94
71716;BME280;59568;52.128;5.434;2023-02-23T02:30:12;101477.00;;;7.03;98.74
71716;BME280;59568;52.128;5.434;2023-02-23T02:38:50;101474.94;;;7.05;98.73
71716;BME280;59568;52.128;5.434;2023-02-23T02:41:50;101470.75;;;7.04;98.63
71716;BME280;59568;52.128;5.434;2023-02-23T02:44:36;101465.00;;;7.02;99.00
71716;BME280;59568;52.128;5.434;2023-02-23T02:47:09;101472.28;;;7.00;99.10
71716;BME280;59568;52.128;5.434;2023-02-23T02:49:49;101472.28;;;7.00;98.97
71716;BME280;59568;52.128;5.434;2023-02-23T02:55:04;101469.13;;;6.98;99.09
71716;BME280;59568;52.128;5.434;2023-02-23T02:57:35;101465.75;;;6.97;99.19
71716;BME280;59568;52.128;5.434;2023-02-23T03:00:03;101460.56;;;6.97;99.34
71716;BME280;59568;52.128;5.434;2023-02-23T03:02:48;101461.59;;;6.96;99.16
71716;BME280;59568;52.128;5.434;2023-02-23T03:05:43;101456.88;;;6.93;99.34
71716;BME280;59568;52.128;5.434;2023-02-23T03:08:45;101466.50;;;6.93;99.50
71716;BME280;59568;52.128;5.434;2023-02-23T03:11:39;101466.75;;;6.91;99.68
71716;BME280;59568;52.128;5.434;2023-02-23T03:14:44;101462.31;;;6.92;99.66
71716;BME280;59568;52.128;5.434;2023-02-23T03:17:47;101466.75;;;6.91;99.68
71716;BME280;59568;52.128;5.434;2023-02-23T03:20:51;101465.97;;;6.91;99.87
71716;BME280;59568;52.128;5.434;2023-02-23T03:26:55;101464.13;;;6.91;99.70
71716;BME280;59568;52.128;5.434;2023-02-23T03:32:31;101468.56;;;6.91;99.99
71716;BME280;59568;52.128;5.434;2023-02-23T03:35:27;101463.38;;;6.91;100.00
71716;BME280;59568;52.128;5.434;2023-02-23T03:38:38;101471.94;;;6.91;100.00
71716;BME280;59568;52.128;5.434;2023-02-23T03:41:26;101471.41;;;6.89;100.00
71716;BME280;59568;52.128;5.434;2023-02-23T03:44:16;101471.63;;;6.88;100.00
71716;BME280;59568;52.128;5.434;2023-02-23T03:47:03;101476.28;;;6.86;100.00
71716;BME280;59568;52.128;5.434;2023-02-23T03:49:50;101481.47;;;6.86;100.00
71716;BME280;59568;52.128;5.434;2023-02-23T03:52:47;101481.75;;;6.84;100.00
71716;BME280;59568;52.128;5.434;2023-02-23T03:55:39;101487.72;;;6.85;100.00
71716;BME280;59568;52.128;5.434;2023-02-23T03:58:34;101487.72;;;6.85;100.00
71716;BME280;59568;52.128;5.434;2023-02-23T04:01:23;101492.38;;;6.83;100.00
71716;BME280;59568;52.128;5.434;2023-02-23T04:04:13;101486.38;;;6.82;100.00
71716;BME280;59568;52.128;5.434;2023-02-23T04:07:00;101487.19;;;6.83;100.00
71716;BME280;59568;52.128;5.434;2023-02-23T04:09:47;101484.03;;;6.80;100.00
71716;BME280;59568;52.128;5.434;2023-02-23T04:12:37;101488.97;;;6.82;100.00
71716;BME280;59568;52.128;5.434;2023-02-23T04:15:32;101498.59;;;6.82;100.00
71716;BME280;59568;52.128;5.434;2023-02-23T04:17:59;101491.84;;;6.80;100.00
71716;BME280;59568;52.128;5.434;2023-02-23T04:20:26;101501.41;;;6.80;100.00
71716;BME280;59568;52.128;5.434;2023-02-23T04:22:53;101498.03;;;6.79;100.00
71716;BME280;59568;52.128;5.434;2023-02-23T04:25:20;101494.91;;;6.77;100.00
71716;BME280;59568;52.128;5.434;2023-02-23T04:27:49;101495.69;;;6.78;100.00
71716;BME280;59568;52.128;5.434;2023-02-23T04:30:17;101500.09;;;6.77;100.00
71716;BME280;59568;52.128;5.434;2023-02-23T04:32:43;101497.50;;;6.77;100.00
71716;BME280;59568;52.128;5.434;2023-02-23T04:35:12;101502.94;;;6.76;100.00
71716;BME280;59568;52.128;5.434;2023-02-23T04:37:38;101499.03;;;6.73;100.00
71716;BME280;59568;52.128;5.434;2023-02-23T04:40:06;101501.63;;;6.73;100.00
71716;BME280;59568;52.128;5.434;2023-02-23T04:42:33;101500.06;;;6.72;100.00
71716;BME280;59568;52.128;5.434;2023-02-23T04:44:59;101503.13;;;6.69;100.00
71716;BME280;59568;52.128;5.434;2023-02-23T04:47:28;101501.31;;;6.70;100.00
71716;BME280;59568;52.128;5.434;2023-02-23T04:49:55;101496.38;;;6.68;100.00
71716;BME280;59568;52.128;5.434;2023-02-23T04:52:22;101510.91;;;6.69;100.00
71716;BME280;59568;52.128;5.434;2023-02-23T04:54:49;101518.25;;;6.72;100.00
71716;BME280;59568;52.128;5.434;2023-02-23T04:57:15;101511.69;;;6.70;100.00
71716;BME280;59568;52.128;5.434;2023-02-23T04:59:42;101519.25;;;6.71;100.00
71716;BME280;59568;52.128;5.434;2023-02-23T05:02:09;101520.84;;;6.72;100.00
71716;BME280;59568;52.128;5.434;2023-02-23T05:04:35;101523.66;;;6.71;100.00
71716;BME280;59568;52.128;5.434;2023-02-23T05:07:03;101524.44;;;6.71;100.00
71716;BME280;59568;52.128;5.434;2023-02-23T05:09:30;101522.91;;;6.70;100.00
71716;BME280;59568;52.128;5.434;2023-02-23T05:11:57;101524.69;;;6.70;100.00
71716;BME280;59568;52.128;5.434;2023-02-23T05:14:24;101523.91;;;6.69;100.00
71716;BME280;59568;52.128;5.434;2023-02-23T05:16:51;101525.50;;;6.70;100.00
71716;BME280;59568;52.128;5.434;2023-02-23T05:19:18;101524.44;;;6.71;100.00
71716;BME280;59568;52.128;5.434;2023-02-23T05:21:44;101525.50;;;6.70;100.00
71716;BME280;59568;52.128;5.434;2023-02-23T05:24:11;101527.81;;;6.72;100.00
71716;BME280;59568;52.128;5.434;2023-02-23T05:26:38;101530.97;;;6.74;100.00
71716;BME280;59568;52.128;5.434;2023-02-23T05:29:05;101539.03;;;6.72;100.00
71716;BME280;59568;52.128;5.434;2023-02-23T05:31:31;101539.28;;;6.76;100.00
71716;BME280;59568;52.128;5.434;2023-02-23T05:33:58;101539.03;;;6.72;100.00
71716;BME280;59568;52.128;5.434;2023-02-23T05:36:27;101545.00;;;6.73;100.00
71716;BME280;59568;52.128;5.434;2023-02-23T05:38:56;101533.00;;;6.72;100.00
71716;BME280;59568;52.128;5.434;2023-02-23T05:41:23;101535.38;;;6.73;100.00
71716;BME280;59568;52.128;5.434;2023-02-23T05:43:50;101529.09;;;6.69;100.00
71716;BME280;59568;52.128;5.434;2023-02-23T05:46:21;101541.63;;;6.72;100.00
71716;BME280;59568;52.128;5.434;2023-02-23T05:48:50;101537.19;;;6.73;100.00
71716;BME280;59568;52.128;5.434;2023-02-23T05:51:20;101538.47;;;6.70;100.00
71716;BME280;59568;52.128;5.434;2023-02-23T05:53:47;101535.88;;;6.70;100.00
71716;BME280;59568;52.128;5.434;2023-02-23T05:56:15;101536.41;;;6.72;100.00
71716;BME280;59568;52.128;5.434;2023-02-23T05:58:53;101544.22;;;6.72;100.00
71716;BME280;59568;52.128;5.434;2023-02-23T06:01:21;101534.59;;;6.73;100.00
71716;BME280;59568;52.128;5.434;2023-02-23T06:03:48;101538.22;;;6.72;100.00
71716;BME280;59568;52.128;5.434;2023-02-23T06:06:16;101543.41;;;6.72;100.00
71716;BME280;59568;52.128;5.434;2023-02-23T06:08:43;101540.03;;;6.71;100.00
71716;BME280;59568;52.128;5.434;2023-02-23T06:11:10;101544.69;;;6.69;100.00
71716;BME280;59568;52.128;5.434;2023-02-23T06:13:36;101551.19;;;6.72;100.00
71716;BME280;59568;52.128;5.434;2023-02-23T06:16:03;101550.66;;;6.70;100.00
71716;BME280;59568;52.128;5.434;2023-02-23T06:18:30;101550.66;;;6.70;100.00
71716;BME280;59568;52.128;5.434;2023-02-23T06:21:00;101554.28;;;6.69;100.00
71716;BME280;59568;52.128;5.434;2023-02-23T06:23:28;101553.50;;;6.68;100.00
71716;BME280;59568;52.128;5.434;2023-02-23T06:25:55;101554.06;;;6.70;100.00
71716;BME280;59568;52.128;5.434;2023-02-23T06:28:22;101554.84;;;6.71;100.00
71716;BME280;59568;52.128;5.434;2023-02-23T06:30:52;101558.22;;;6.71;100.00
71716;BME280;59568;52.128;5.434;2023-02-23T06:33:19;101564.19;;;6.72;100.00
71716;BME280;59568;52.128;5.434;2023-02-23T06:35:46;101559.78;;;6.72;100.00
71716;BME280;59568;52.128;5.434;2023-02-23T06:38:13;101569.16;;;6.73;100.00
71716;BME280;59568;52.128;5.434;2023-02-23T06:40:40;101576.94;;;6.73;100.00
71716;BME280;59568;52.128;5.434;2023-02-23T06:43:07;101574.34;;;6.73;100.00
71716;BME280;59568;52.128;5.434;2023-02-23T06:45:34;101576.94;;;6.73;100.00
71716;BME280;59568;52.128;5.434;2023-02-23T06:48:00;101578.75;;;6.73;100.00
71716;BME280;59568;52.128;5.434;2023-02-23T06:50:27;101584.72;;;6.73;100.00
71716;BME280;59568;52.128;5.434;2023-02-23T06:52:54;101579.53;;;6.73;100.00
71716;BME280;59568;52.128;5.434;2023-02-23T06:55:23;101577.97;;;6.72;100.00
71716;BME280;59568;52.128;5.434;2023-02-23T06:57:49;101589.94;;;6.73;100.00
71716;BME280;59568;52.128;5.434;2023-02-23T07:00:17;101591.50;;;6.74;100.00
71716;BME280;59568;52.128;5.434;2023-02-23T07:02:44;101590.47;;;6.75;100.00
71716;BME280;59568;52.128;5.434;2023-02-23T07:05:11;101586.84;;;6.76;100.00
71716;BME280;59568;52.128;5.434;2023-02-23T07:07:38;101591.25;;;6.76;100.00
71716;BME280;59568;52.128;5.434;2023-02-23T07:10:05;101584.25;;;6.76;100.00
71716;BME280;59568;52.128;5.434;2023-02-23T07:12:32;101592.06;;;6.76;100.00
71716;BME280;59568;52.128;5.434;2023-02-23T07:14:59;101598.81;;;6.77;100.00
71716;BME280;59568;52.128;5.434;2023-02-23T07:17:26;101607.16;;;6.79;100.00
71716;BME280;59568;52.128;5.434;2023-02-23T07:19:52;101615.47;;;6.82;100.00
71716;BME280;59568;52.128;5.434;2023-02-23T07:22:19;101617.06;;;6.83;100.00
71716;BME280;59568;52.128;5.434;2023-02-23T07:24:46;101625.09;;;6.81;100.00
71716;BME280;59568;52.128;5.434;2023-02-23T07:27:13;101620.91;;;6.80;100.00
71716;BME280;59568;52.128;5.434;2023-02-23T07:29:40;101624.88;;;6.83;100.00
71716;BME280;59568;52.128;5.434;2023-02-23T07:32:08;101631.38;;;6.85;100.00
71716;BME280;59568;52.128;5.434;2023-02-23T07:34:35;101632.16;;;6.86;100.00
71716;BME280;59568;52.128;5.434;2023-02-23T07:37:03;101641.53;;;6.87;100.00
71716;BME280;59568;52.128;5.434;2023-02-23T07:39:29;101642.31;;;6.87;100.00
71716;BME280;59568;52.128;5.434;2023-02-23T07:41:57;101649.88;;;6.89;100.00
71716;BME280;59568;52.128;5.434;2023-02-23T07:44:23;101652.47;;;6.89;100.00
71716;BME280;59568;52.128;5.434;2023-02-23T07:46:50;101648.84;;;6.90;100.00
71716;BME280;59568;52.128;5.434;2023-02-23T07:49:20;101650.19;;;6.92;100.00
71716;BME280;59568;52.128;5.434;2023-02-23T07:51:46;101646.56;;;6.93;100.00
71716;BME280;59568;52.128;5.434;2023-02-23T07:54:13;101651.28;;;6.96;100.00
71716;BME280;59568;52.128;5.434;2023-02-23T07:56:41;101656.47;;;6.96;100.00
71716;BME280;59568;52.128;5.434;2023-02-23T07:59:07;101652.59;;;6.99;100.00
71716;BME280;59568;52.128;5.434;2023-02-23T08:01:34;101666.47;;;7.05;100.00
71716;BME280;59568;52.128;5.434;2023-02-23T08:04:01;101659.97;;;7.07;100.00
71716;BME280;59568;52.128;5.434;2023-02-23T08:06:29;101664.41;;;7.07;100.00
71716;BME280;59568;52.128;5.434;2023-02-23T08:08:58;101664.72;;;7.10;100.00
71716;BME280;59568;52.128;5.434;2023-02-23T08:11:26;101662.66;;;7.12;100.00
71716;BME280;59568;52.128;5.434;2023-02-23T08:13:55;101668.13;;;7.16;100.00
71716;BME280;59568;52.128;5.434;2023-02-23T08:16:27;101671.03;;;7.19;100.00
71716;BME280;59568;52.128;5.434;2023-02-23T08:18:55;101659.91;;;7.24;100.00
71716;BME280;59568;52.128;5.434;2023-02-23T08:21:24;101673.28;;;7.33;100.00
71716;BME280;59568;52.128;5.434;2023-02-23T08:23:50;101670.69;;;7.33;100.00
71716;BME280;59568;52.128;5.434;2023-02-23T08:26:20;101672.31;;;7.39;100.00
71716;BME280;59568;52.128;5.434;2023-02-23T08:28:47;101681.75;;;7.45;100.00
71716;BME280;59568;52.128;5.434;2023-02-23T08:31:14;101684.94;;;7.52;100.00
71716;BME280;59568;52.128;5.434;2023-02-23T08:33:45;101682.63;;;7.56;100.00
71716;BME280;59568;52.128;5.434;2023-02-23T08:36:12;101684.50;;;7.60;100.00
71716;BME280;59568;52.128;5.434;2023-02-23T08:38:38;101692.63;;;7.64;100.00
71716;BME280;59568;52.128;5.434;2023-02-23T08:41:05;101689.53;;;7.67;100.00
71716;BME280;59568;52.128;5.434;2023-02-23T08:43:32;101693.44;;;7.70;100.00
71716;BME280;59568;52.128;5.434;2023-02-23T08:45:58;101695.03;;;7.71;100.00
71716;BME280;59568;52.128;5.434;2023-02-23T08:48:25;101698.97;;;7.73;100.00
71716;BME280;59568;52.128;5.434;2023-02-23T08:50:57;101706.53;;;7.75;100.00
71716;BME280;59568;52.128;5.434;2023-02-23T08:53:24;101701.81;;;7.72;100.00
71716;BME280;59568;52.128;5.434;2023-02-23T08:55:58;101703.94;;;7.75;100.00
71716;BME280;59568;52.128;5.434;2023-02-23T08:58:27;101706.53;;;7.75;100.00
71716;BME280;59568;52.128;5.434;2023-02-23T09:00:54;101704.41;;;7.72;100.00
71716;BME280;59568;52.128;5.434;2023-02-23T09:03:21;101710.16;;;7.74;100.00
71716;BME280;59568;52.128;5.434;2023-02-23T09:05:48;101716.13;;;7.74;100.00
71716;BME280;59568;52.128;5.434;2023-02-23T09:08:15;101718.25;;;7.77;100.00
71716;BME280;59568;52.128;5.434;2023-02-23T09:10:42;101713.91;;;7.83;100.00
71716;BME280;59568;52.128;5.434;2023-02-23T09:13:12;101711.63;;;7.92;100.00
71716;BME280;59568;52.128;5.434;2023-02-23T09:15:39;101720.28;;;7.97;100.00
71716;BME280;59568;52.128;5.434;2023-02-23T09:18:06;101723.72;;;8.03;100.00
71716;BME280;59568;52.128;5.434;2023-02-23T09:20:33;101722.91;;;8.03;100.00
71716;BME280;59568;52.128;5.434;2023-02-23T09:23:00;101721.34;;;8.02;100.00
71716;BME280;59568;52.128;5.434;2023-02-23T09:25:27;101727.53;;;7.95;100.00
71716;BME280;59568;52.128;5.434;2023-02-23T09:27:55;101730.16;;;7.95;100.00
71716;BME280;59568;52.128;5.434;2023-02-23T09:30:26;101733.00;;;7.94;100.00
71716;BME280;59568;52.128;5.434;2023-02-23T09:32:53;101728.31;;;7.96;100.00
71716;BME280;59568;52.128;5.434;2023-02-23T09:35:22;101735.91;;;7.97;100.00
71716;BME280;59568;52.128;5.434;2023-02-23T09:37:52;101734.63;;;8.00;100.00
71716;BME280;59568;52.128;5.434;2023-02-23T09:40:27;101739.81;;;8.00;100.00
71716;BME280;59568;52.128;5.434;2023-02-23T09:45:41;101743.75;;;8.03;100.00
71716;BME280;59568;52.128;5.434;2023-02-23T09:48:17;101746.78;;;7.94;100.00
71716;BME280;59568;52.128;5.434;2023-02-23T09:50:50;101743.94;;;7.96;100.00
71716;BME280;59568;52.128;5.434;2023-02-23T09:53:40;101751.22;;;7.94;99.65
71716;BME280;59568;52.128;5.434;2023-02-23T09:56:20;101745.47;;;7.92;99.27
71716;BME280;59568;52.128;5.434;2023-02-23T09:58:49;101748.38;;;7.95;99.25
71716;BME280;59568;52.128;5.434;2023-02-23T10:04:25;101742.28;;;8.12;99.68
71716;BME280;59568;52.128;5.434;2023-02-23T10:06:58;101743.84;;;8.13;99.20
71716;BME280;59568;52.128;5.434;2023-02-23T10:15:08;101757.69;;;8.18;98.48
71716;BME280;59568;52.128;5.434;2023-02-23T10:17:50;101761.88;;;8.19;98.11
71716;BME280;59568;52.128;5.434;2023-02-23T10:23:07;101760.06;;;8.20;97.50
71716;BME280;59568;52.128;5.434;2023-02-23T10:25:41;101758.97;;;8.16;96.79
71716;BME280;59568;52.128;5.434;2023-02-23T10:28:14;101749.34;;;8.16;96.77
71716;BME280;59568;52.128;5.434;2023-02-23T10:30:42;101750.88;;;8.12;96.54
71716;BME280;59568;52.128;5.434;2023-02-23T10:36:08;101763.72;;;8.19;97.25
71716;BME280;59568;52.128;5.434;2023-02-23T10:38:39;101775.47;;;8.27;97.60
71716;BME280;59568;52.128;5.434;2023-02-23T10:41:06;101768.50;;;8.32;97.60
71716;BME280;59568;52.128;5.434;2023-02-23T10:43:34;101775.78;;;8.30;97.67
71716;BME280;59568;52.128;5.434;2023-02-23T10:46:01;101775.03;;;8.35;97.96
71716;BME280;59568;52.128;5.434;2023-02-23T10:48:39;101776.09;;;8.39;97.60
71716;BME280;59568;52.128;5.434;2023-02-23T10:51:17;101773.50;;;8.39;97.53
71716;BME280;59568;52.128;5.434;2023-02-23T10:53:46;101782.69;;;8.42;97.22
71716;BME280;59568;52.128;5.434;2023-02-23T10:56:14;101780.28;;;8.40;97.13
71716;BME280;59568;52.128;5.434;2023-02-23T11:01:31;101785.84;;;8.44;96.93
71716;BME280;59568;52.128;5.434;2023-02-23T11:06:47;101780.28;;;8.40;96.37
71716;BME280;59568;52.128;5.434;2023-02-23T11:09:28;101778.56;;;8.46;96.25
71716;BME280;59568;52.128;5.434;2023-02-23T11:14:49;101765.38;;;8.57;95.82
71716;BME280;59568;52.128;5.434;2023-02-23T11:17:28;101768.75;;;8.58;95.68
71716;BME280;59568;52.128;5.434;2023-02-23T11:22:35;101768.84;;;8.68;95.34
71716;BME280;59568;52.128;5.434;2023-02-23T11:25:19;101772.50;;;8.72;95.24
71716;BME280;59568;52.128;5.434;2023-02-23T11:27:50;101775.94;;;8.78;95.29
71716;BME280;59568;52.128;5.434;2023-02-23T11:30:34;101777.50;;;8.79;94.99
71716;BME280;59568;52.128;5.434;2023-02-23T11:33:15;101776.19;;;8.76;94.92
71716;BME280;59568;52.128;5.434;2023-02-23T11:35:42;101785.25;;;8.69;94.58
71716;BME280;59568;52.128;5.434;2023-02-23T11:38:22;101791.44;;;8.63;94.19
71716;BME280;59568;52.128;5.434;2023-02-23T11:40:59;101790.63;;;8.57;94.00
71716;BME280;59568;52.128;5.434;2023-02-23T11:43:26;101788.47;;;8.49;94.00
71716;BME280;59568;52.128;5.434;2023-02-23T11:45:58;101788.34;;;8.38;93.60
71716;BME280;59568;52.128;5.434;2023-02-23T11:51:32;101775.06;;;8.13;93.67
71716;BME280;59568;52.128;5.434;2023-02-23T11:54:01;101778.19;;;8.10;93.66
71716;BME280;59568;52.128;5.434;2023-02-23T11:56:32;101783.88;;;8.07;93.89
71716;BME280;59568;52.128;5.434;2023-02-23T11:59:02;101782.78;;;8.03;94.42
71716;BME280;59568;52.128;5.434;2023-02-23T12:01:49;101782.31;;;8.06;94.55
71716;BME280;59568;52.128;5.434;2023-02-23T12:04:36;101778.13;;;8.05;94.66
71716;BME280;59568;52.128;5.434;2023-02-23T12:10:28;101780.44;;;8.01;94.68
71716;BME280;59568;52.128;5.434;2023-02-23T12:15:41;101787.41;;;7.95;94.64
71716;BME280;59568;52.128;5.434;2023-02-23T12:18:53;101789.47;;;7.93;94.85
71716;BME280;59568;52.128;5.434;2023-02-23T12:21:40;101792.66;;;8.00;94.92
71716;BME280;59568;52.128;5.434;2023-02-23T12:24:39;101792.19;;;8.04;94.70
71716;BME280;59568;52.128;5.434;2023-02-23T12:30:37;101791.88;;;8.00;94.40
71716;BME280;59568;52.128;5.434;2023-02-23T12:33:12;101786.44;;;8.02;94.26
71716;BME280;59568;52.128;5.434;2023-02-23T12:35:56;101785.75;;;8.11;94.60
71716;BME280;59568;52.128;5.434;2023-02-23T12:38:40;101778.63;;;8.29;94.70
71716;BME280;59568;52.128;5.434;2023-02-23T12:41:16;101774.53;;;8.38;94.65
71716;BME280;59568;52.128;5.434;2023-02-23T12:43:49;101777.38;;;8.36;93.86
71716;BME280;59568;52.128;5.434;2023-02-23T12:46:23;101782.59;;;8.36;93.50
71716;BME280;59568;52.128;5.434;2023-02-23T12:52:17;101789.28;;;8.49;93.09
71716;BME280;59568;52.128;5.434;2023-02-23T12:54:46;101787.38;;;8.45;92.96
71716;BME280;59568;52.128;5.434;2023-02-23T12:57:32;101791.34;;;8.47;92.66
71716;BME280;59568;52.128;5.434;2023-02-23T13:06:01;101785.94;;;8.59;92.56
71716;BME280;59568;52.128;5.434;2023-02-23T13:14:46;101778.56;;;8.46;91.54
71716;BME280;59568;52.128;5.434;2023-02-23T13:17:37;101773.03;;;8.42;91.58
71716;BME280;59568;52.128;5.434;2023-02-23T13:20:18;101773.63;;;8.49;91.53
71716;BME280;59568;52.128;5.434;2023-02-23T13:23:02;101779.13;;;8.53;91.36
71716;BME280;59568;52.128;5.434;2023-02-23T13:28:20;101771.44;;;8.68;91.20
71716;BME280;59568;52.128;5.434;2023-02-23T13:30:53;101765.22;;;8.74;90.63
71716;BME280;59568;52.128;5.434;2023-02-23T13:33:26;101772.50;;;8.72;90.02
71716;BME280;59568;52.128;5.434;2023-02-23T13:36:08;101764.44;;;8.74;90.08
71716;BME280;59568;52.128;5.434;2023-02-23T13:38:44;101771.03;;;8.82;89.90
71716;BME280;59568;52.128;5.434;2023-02-23T13:41:26;101765.81;;;8.82;89.63
71716;BME280;59568;52.128;5.434;2023-02-23T13:44:21;101773.63;;;8.82;89.13
71716;BME280;59568;52.128;5.434;2023-02-23T13:47:05;101774.09;;;8.73;89.17
71716;BME280;59568;52.128;5.434;2023-02-23T13:49:45;101777.19;;;8.70;89.30
71716;BME280;59568;52.128;5.434;2023-02-23T13:52:37;101767.75;;;8.64;89.41
71716;BME280;59568;52.128;5.434;2023-02-23T13:58:16;101773.19;;;8.57;89.94
71716;BME280;59568;52.128;5.434;2023-02-23T14:00:52;101779.38;;;8.51;89.63
71716;BME280;59568;52.128;5.434;2023-02-23T14:03:25;101776.50;;;8.48;89.79
71716;BME280;59568;52.128;5.434;2023-02-23T14:05:58;101778.00;;;8.44;90.28
71716;BME280;59568;52.128;5.434;2023-02-23T14:08:34;101780.63;;;8.44;90.48
71716;BME280;59568;52.128;5.434;2023-02-23T14:11:02;101775.56;;;8.37;90.83
71716;BME280;59568;52.128;5.434;2023-02-23T14:13:33;101782.56;;;8.31;90.75
71716;BME280;59568;52.128;5.434;2023-02-23T14:16:15;101783.56;;;8.25;91.27
71716;BME280;59568;52.128;5.434;2023-02-23T14:19:08;101789.25;;;8.22;91.31
71716;BME280;59568;52.128;5.434;2023-02-23T14:21:49;101790.09;;;8.33;91.63
71716;BME280;59568;52.128;5.434;2023-02-23T14:24:26;101800.06;;;8.36;91.35
71716;BME280;59568;52.128;5.434;2023-02-23T14:30:13;101793.88;;;8.42;90.64
71716;BME280;59568;52.128;5.434;2023-02-23T14:32:41;101792.31;;;8.41;90.51
71716;BME280;59568;52.128;5.434;2023-02-23T14:35:46;101792.00;;;8.37;90.36
71716;BME280;59568;52.128;5.434;2023-02-23T14:38:26;101791.47;;;8.35;90.72
71716;BME280;59568;52.128;5.434;2023-02-23T14:41:11;101794.06;;;8.35;90.46
71716;BME280;59568;52.128;5.434;2023-02-23T14:43:40;101790.38;;;8.31;90.42
71716;BME280;59568;52.128;5.434;2023-02-23T14:46:23;101783.81;;;8.29;90.11
71716;BME280;59568;52.128;5.434;2023-02-23T14:49:07;101788.78;;;8.30;90.30
71716;BME280;59568;52.128;5.434;2023-02-23T14:51:50;101787.50;;;8.33;90.77
71716;BME280;59568;52.128;5.434;2023-02-23T14:54:29;101783.09;;;8.33;90.62
71716;BME280;59568;52.128;5.434;2023-02-23T14:56:59;101789.38;;;8.37;90.74
71716;BME280;59568;52.128;5.434;2023-02-23T14:59:34;101777.69;;;8.40;90.90